sensor_id;sensor_type;location;lat;lon;timestamp;temperature;humidity
6256;DHT22;3161;48.794;9.784;2023-12-20T00:01:48;6.10;99.90
6256;DHT22;3161;48.794;9.784;2023-12-20T00:04:16;6.10;99.90
6256;DHT22;3161;48.794;9.784;2023-12-20T00:06:43;6.10;99.90
6256;DHT22;3161;48.794;9.784;2023-12-20T00:09:11;6.20;99.90
6256;DHT22;3161;48.794;9.784;2023-12-20T00:11:38;6.20;99.90
6256;DHT22;3161;48.794;9.784;2023-12-20T00:14:07;6.20;99.90
6256;DHT22;3161;48.794;9.784;2023-12-20T00:16:35;6.20;99.90
6256;DHT22;3161;48.794;9.784;2023-12-20T00:19:02;6.20;99.90
6256;DHT22;3161;48.794;9.784;2023-12-20T00:21:30;6.20;99.90
6256;DHT22;3161;48.794;9.784;2023-12-20T00:23:57;6.20;99.90
6256;DHT22;3161;48.794;9.784;2023-12-20T00:26:25;6.20;99.90
6256;DHT22;3161;48.794;9.784;2023-12-20T00:28:54;6.10;99.90
6256;DHT22;3161;48.794;9.784;2023-12-20T00:31:22;6.10;99.90
6256;DHT22;3161;48.794;9.784;2023-12-20T00:33:49;6.10;99.90
6256;DHT22;3161;48.794;9.784;2023-12-20T00:36:17;6.10;99.90
6256;DHT22;3161;48.794;9.784;2023-12-20T00:38:44;6.10;99.90
6256;DHT22;3161;48.794;9.784;2023-12-20T00:41:12;6.10;99.90
6256;DHT22;3161;48.794;9.784;2023-12-20T00:43:39;6.10;99.90
6256;DHT22;3161;48.794;9.784;2023-12-20T00:46:07;6.10;99.90
6256;DHT22;3161;48.794;9.784;2023-12-20T00:48:35;6.00;99.90
6256;DHT22;3161;48.794;9.784;2023-12-20T00:51:03;6.10;99.90
6256;DHT22;3161;48.794;9.784;2023-12-20T00:53:30;6.00;99.90
6256;DHT22;3161;48.794;9.784;2023-12-20T00:55:58;6.00;99.90
6256;DHT22;3161;48.794;9.784;2023-12-20T00:58:25;6.00;99.90
6256;DHT22;3161;48.794;9.784;2023-12-20T01:00:54;6.00;99.90
6256;DHT22;3161;48.794;9.784;2023-12-20T01:03:22;6.00;99.90
6256;DHT22;3161;48.794;9.784;2023-12-20T01:05:49;6.10;99.90
6256;DHT22;3161;48.794;9.784;2023-12-20T01:08:17;6.00;99.90
6256;DHT22;3161;48.794;9.784;2023-12-20T01:10:44;6.00;99.90
6256;DHT22;3161;48.794;9.784;2023-12-20T01:13:13;6.00;99.90
6256;DHT22;3161;48.794;9.784;2023-12-20T01:15:40;6.10;99.90
6256;DHT22;3161;48.794;9.784;2023-12-20T01:18:08;6.10;99.90
6256;DHT22;3161;48.794;9.784;2023-12-20T01:20:35;6.10;99.90
6256;DHT22;3161;48.794;9.784;2023-12-20T01:23:03;6.00;99.90
6256;DHT22;3161;48.794;9.784;2023-12-20T01:25:31;6.00;99.90
6256;DHT22;3161;48.794;9.784;2023-12-20T01:27:58;6.00;99.90
6256;DHT22;3161;48.794;9.784;2023-12-20T01:30:26;6.00;99.90
6256;DHT22;3161;48.794;9.784;2023-12-20T01:32:53;6.00;99.90
6256;DHT22;3161;48.794;9.784;2023-12-20T01:35:21;6.00;99.90
6256;DHT22;3161;48.794;9.784;2023-12-20T01:37:48;6.00;99.90
6256;DHT22;3161;48.794;9.784;2023-12-20T01:40:16;6.00;99.90
6256;DHT22;3161;48.794;9.784;2023-12-20T01:42:43;6.00;99.90
6256;DHT22;3161;48.794;9.784;2023-12-20T01:45:11;6.00;99.90
6256;DHT22;3161;48.794;9.784;2023-12-20T01:47:38;6.00;99.90
6256;DHT22;3161;48.794;9.784;2023-12-20T01:50:07;6.00;99.90
6256;DHT22;3161;48.794;9.784;2023-12-20T01:52:35;5.90;99.90
6256;DHT22;3161;48.794;9.784;2023-12-20T01:55:02;5.90;99.90
6256;DHT22;3161;48.794;9.784;2023-12-20T01:57:32;5.90;99.90
6256;DHT22;3161;48.794;9.784;2023-12-20T01:59:59;5.90;99.90
6256;DHT22;3161;48.794;9.784;2023-12-20T02:02:28;5.90;99.90
6256;DHT22;3161;48.794;9.784;2023-12-20T02:04:55;5.90;99.90
6256;DHT22;3161;48.794;9.784;2023-12-20T02:07:23;5.90;99.90
6256;DHT22;3161;48.794;9.784;2023-12-20T02:09:51;5.90;99.90
6256;DHT22;3161;48.794;9.784;2023-12-20T02:12:19;5.90;99.90
6256;DHT22;3161;48.794;9.784;2023-12-20T02:14:47;5.90;99.90
6256;DHT22;3161;48.794;9.784;2023-12-20T02:17:16;5.90;99.90
6256;DHT22;3161;48.794;9.784;2023-12-20T02:19:44;6.00;99.90
6256;DHT22;3161;48.794;9.784;2023-12-20T02:22:11;5.90;99.90
6256;DHT22;3161;48.794;9.784;2023-12-20T02:24:39;6.00;99.90
6256;DHT22;3161;48.794;9.784;2023-12-20T02:27:07;6.00;99.90
6256;DHT22;3161;48.794;9.784;2023-12-20T02:29:35;6.00;99.90
6256;DHT22;3161;48.794;9.784;2023-12-20T02:32:03;6.00;99.90
6256;DHT22;3161;48.794;9.784;2023-12-20T02:34:31;6.00;99.90
6256;DHT22;3161;48.794;9.784;2023-12-20T02:36:58;6.10;99.90
6256;DHT22;3161;48.794;9.784;2023-12-20T02:39:26;6.10;99.90
6256;DHT22;3161;48.794;9.784;2023-12-20T02:41:53;6.10;99.90
6256;DHT22;3161;48.794;9.784;2023-12-20T02:44:21;6.10;99.90
6256;DHT22;3161;48.794;9.784;2023-12-20T02:46:48;6.00;99.90
6256;DHT22;3161;48.794;9.784;2023-12-20T02:49:16;6.00;99.90
6256;DHT22;3161;48.794;9.784;2023-12-20T02:51:43;6.10;99.90
6256;DHT22;3161;48.794;9.784;2023-12-20T02:54:11;6.10;99.90
6256;DHT22;3161;48.794;9.784;2023-12-20T02:56:38;6.10;99.90
6256;DHT22;3161;48.794;9.784;2023-12-20T02:59:06;6.10;99.90
6256;DHT22;3161;48.794;9.784;2023-12-20T03:01:35;6.10;99.90
6256;DHT22;3161;48.794;9.784;2023-12-20T03:04:04;6.10;99.90
6256;DHT22;3161;48.794;9.784;2023-12-20T03:06:31;6.10;99.90
6256;DHT22;3161;48.794;9.784;2023-12-20T03:08:59;6.10;99.90
6256;DHT22;3161;48.794;9.784;2023-12-20T03:11:29;6.10;99.90
6256;DHT22;3161;48.794;9.784;2023-12-20T03:13:57;6.10;99.90
6256;DHT22;3161;48.794;9.784;2023-12-20T03:16:25;6.10;99.90
6256;DHT22;3161;48.794;9.784;2023-12-20T03:18:52;6.10;99.90
6256;DHT22;3161;48.794;9.784;2023-12-20T03:21:20;6.10;99.90
6256;DHT22;3161;48.794;9.784;2023-12-20T03:23:47;6.10;99.90
6256;DHT22;3161;48.794;9.784;2023-12-20T03:26:15;6.10;99.90
6256;DHT22;3161;48.794;9.784;2023-12-20T03:28:42;6.20;99.90
6256;DHT22;3161;48.794;9.784;2023-12-20T03:31:10;6.20;99.90
6256;DHT22;3161;48.794;9.784;2023-12-20T03:33:38;6.10;99.90
6256;DHT22;3161;48.794;9.784;2023-12-20T03:36:06;6.20;99.90
6256;DHT22;3161;48.794;9.784;2023-12-20T03:38:33;6.20;99.90
6256;DHT22;3161;48.794;9.784;2023-12-20T03:41:01;6.20;99.90
6256;DHT22;3161;48.794;9.784;2023-12-20T03:43:28;6.20;99.90
6256;DHT22;3161;48.794;9.784;2023-12-20T03:45:56;6.10;99.90
6256;DHT22;3161;48.794;9.784;2023-12-20T03:48:25;6.20;99.90
6256;DHT22;3161;48.794;9.784;2023-12-20T03:50:53;6.10;99.90
6256;DHT22;3161;48.794;9.784;2023-12-20T03:53:20;6.10;99.90
6256;DHT22;3161;48.794;9.784;2023-12-20T03:55:48;6.20;99.90
6256;DHT22;3161;48.794;9.784;2023-12-20T03:58:15;6.20;99.90
6256;DHT22;3161;48.794;9.784;2023-12-20T04:00:43;6.20;99.90
6256;DHT22;3161;48.794;9.784;2023-12-20T04:03:10;6.20;99.90
6256;DHT22;3161;48.794;9.784;2023-12-20T04:05:40;6.20;99.90
6256;DHT22;3161;48.794;9.784;2023-12-20T04:08:09;6.20;99.90
6256;DHT22;3161;48.794;9.784;2023-12-20T04:10:36;6.30;99.90
6256;DHT22;3161;48.794;9.784;2023-12-20T04:13:04;6.20;99.90
6256;DHT22;3161;48.794;9.784;2023-12-20T04:15:32;6.20;99.90
6256;DHT22;3161;48.794;9.784;2023-12-20T04:17:59;6.20;99.90
6256;DHT22;3161;48.794;9.784;2023-12-20T04:20:27;6.20;99.90
6256;DHT22;3161;48.794;9.784;2023-12-20T04:22:54;6.20;99.90
6256;DHT22;3161;48.794;9.784;2023-12-20T04:25:22;6.20;99.90
6256;DHT22;3161;48.794;9.784;2023-12-20T04:27:49;6.20;99.90
6256;DHT22;3161;48.794;9.784;2023-12-20T04:30:17;6.20;99.90
6256;DHT22;3161;48.794;9.784;2023-12-20T04:32:44;6.20;99.90
6256;DHT22;3161;48.794;9.784;2023-12-20T04:35:12;6.20;99.90
6256;DHT22;3161;48.794;9.784;2023-12-20T04:37:39;6.20;99.90
6256;DHT22;3161;48.794;9.784;2023-12-20T04:40:07;6.10;99.90
6256;DHT22;3161;48.794;9.784;2023-12-20T04:42:35;6.20;99.90
6256;DHT22;3161;48.794;9.784;2023-12-20T04:45:22;6.10;99.90
6256;DHT22;3161;48.794;9.784;2023-12-20T04:47:51;6.10;99.90
6256;DHT22;3161;48.794;9.784;2023-12-20T04:50:20;6.20;99.90
6256;DHT22;3161;48.794;9.784;2023-12-20T04:52:48;6.10;99.90
6256;DHT22;3161;48.794;9.784;2023-12-20T04:55:15;6.20;99.90
6256;DHT22;3161;48.794;9.784;2023-12-20T04:57:43;6.10;99.90
6256;DHT22;3161;48.794;9.784;2023-12-20T05:00:11;6.10;99.90
6256;DHT22;3161;48.794;9.784;2023-12-20T05:02:40;6.10;99.90
6256;DHT22;3161;48.794;9.784;2023-12-20T05:05:09;6.10;99.90
6256;DHT22;3161;48.794;9.784;2023-12-20T05:07:36;6.10;99.90
6256;DHT22;3161;48.794;9.784;2023-12-20T05:10:05;6.10;99.90
6256;DHT22;3161;48.794;9.784;2023-12-20T05:12:34;6.00;99.90
6256;DHT22;3161;48.794;9.784;2023-12-20T05:15:02;6.00;99.90
6256;DHT22;3161;48.794;9.784;2023-12-20T05:17:29;6.00;99.90
6256;DHT22;3161;48.794;9.784;2023-12-20T05:19:57;6.00;99.90
6256;DHT22;3161;48.794;9.784;2023-12-20T05:22:24;6.00;99.90
6256;DHT22;3161;48.794;9.784;2023-12-20T05:24:52;5.90;99.90
6256;DHT22;3161;48.794;9.784;2023-12-20T05:27:19;5.90;99.90
6256;DHT22;3161;48.794;9.784;2023-12-20T05:29:47;5.80;99.90
6256;DHT22;3161;48.794;9.784;2023-12-20T05:32:14;5.90;99.90
6256;DHT22;3161;48.794;9.784;2023-12-20T05:34:42;5.90;99.90
6256;DHT22;3161;48.794;9.784;2023-12-20T05:37:09;5.90;99.90
6256;DHT22;3161;48.794;9.784;2023-12-20T05:39:37;5.90;99.90
6256;DHT22;3161;48.794;9.784;2023-12-20T05:42:05;5.90;99.90
6256;DHT22;3161;48.794;9.784;2023-12-20T05:44:32;5.90;99.90
6256;DHT22;3161;48.794;9.784;2023-12-20T05:47:00;5.90;99.90
6256;DHT22;3161;48.794;9.784;2023-12-20T05:49:27;5.90;99.90
6256;DHT22;3161;48.794;9.784;2023-12-20T05:51:55;5.90;99.90
6256;DHT22;3161;48.794;9.784;2023-12-20T05:54:22;5.90;99.90
6256;DHT22;3161;48.794;9.784;2023-12-20T05:56:50;5.90;99.90
6256;DHT22;3161;48.794;9.784;2023-12-20T05:59:17;5.90;99.90
6256;DHT22;3161;48.794;9.784;2023-12-20T06:01:45;5.90;99.90
6256;DHT22;3161;48.794;9.784;2023-12-20T06:04:13;5.90;99.90
6256;DHT22;3161;48.794;9.784;2023-12-20T06:06:43;5.90;99.90
6256;DHT22;3161;48.794;9.784;2023-12-20T06:09:11;6.00;99.90
6256;DHT22;3161;48.794;9.784;2023-12-20T06:11:39;5.90;99.90
6256;DHT22;3161;48.794;9.784;2023-12-20T06:14:07;5.90;99.90
6256;DHT22;3161;48.794;9.784;2023-12-20T06:16:34;5.90;99.90
6256;DHT22;3161;48.794;9.784;2023-12-20T06:19:02;5.90;99.90
6256;DHT22;3161;48.794;9.784;2023-12-20T06:21:29;5.90;99.90
6256;DHT22;3161;48.794;9.784;2023-12-20T06:23:59;5.90;99.90
6256;DHT22;3161;48.794;9.784;2023-12-20T06:26:27;5.90;99.90
6256;DHT22;3161;48.794;9.784;2023-12-20T06:28:54;5.90;99.90
6256;DHT22;3161;48.794;9.784;2023-12-20T06:31:22;5.90;99.90
6256;DHT22;3161;48.794;9.784;2023-12-20T06:33:49;5.90;99.90
6256;DHT22;3161;48.794;9.784;2023-12-20T06:36:18;5.90;99.90
6256;DHT22;3161;48.794;9.784;2023-12-20T06:38:46;5.90;99.90
6256;DHT22;3161;48.794;9.784;2023-12-20T06:41:15;5.90;99.90
6256;DHT22;3161;48.794;9.784;2023-12-20T06:43:43;5.90;99.90
6256;DHT22;3161;48.794;9.784;2023-12-20T06:46:10;5.90;99.90
6256;DHT22;3161;48.794;9.784;2023-12-20T06:48:39;5.90;99.90
6256;DHT22;3161;48.794;9.784;2023-12-20T06:51:13;5.90;99.90
6256;DHT22;3161;48.794;9.784;2023-12-20T06:53:41;5.90;99.90
6256;DHT22;3161;48.794;9.784;2023-12-20T06:56:10;5.90;99.90
6256;DHT22;3161;48.794;9.784;2023-12-20T06:58:39;5.90;99.90
6256;DHT22;3161;48.794;9.784;2023-12-20T07:01:11;5.90;99.90
6256;DHT22;3161;48.794;9.784;2023-12-20T07:03:39;5.90;99.90
6256;DHT22;3161;48.794;9.784;2023-12-20T07:06:07;5.90;99.90
6256;DHT22;3161;48.794;9.784;2023-12-20T07:08:35;5.90;99.90
6256;DHT22;3161;48.794;9.784;2023-12-20T07:11:02;5.90;99.90
6256;DHT22;3161;48.794;9.784;2023-12-20T07:13:30;5.90;99.90
6256;DHT22;3161;48.794;9.784;2023-12-20T07:15:58;6.00;99.90
6256;DHT22;3161;48.794;9.784;2023-12-20T07:18:25;6.00;99.90
6256;DHT22;3161;48.794;9.784;2023-12-20T07:20:53;6.00;99.90
6256;DHT22;3161;48.794;9.784;2023-12-20T07:23:21;6.00;99.90
6256;DHT22;3161;48.794;9.784;2023-12-20T07:25:49;6.00;99.90
6256;DHT22;3161;48.794;9.784;2023-12-20T07:28:16;6.00;99.90
6256;DHT22;3161;48.794;9.784;2023-12-20T07:30:44;6.00;99.90
6256;DHT22;3161;48.794;9.784;2023-12-20T07:36:06;6.00;99.90
6256;DHT22;3161;48.794;9.784;2023-12-20T07:38:34;6.00;99.90
6256;DHT22;3161;48.794;9.784;2023-12-20T07:41:02;6.00;99.90
6256;DHT22;3161;48.794;9.784;2023-12-20T07:43:29;6.00;99.90
6256;DHT22;3161;48.794;9.784;2023-12-20T07:45:57;6.00;99.90
6256;DHT22;3161;48.794;9.784;2023-12-20T07:48:24;6.00;99.90
6256;DHT22;3161;48.794;9.784;2023-12-20T07:50:52;6.00;99.90
6256;DHT22;3161;48.794;9.784;2023-12-20T07:53:20;6.00;99.90
6256;DHT22;3161;48.794;9.784;2023-12-20T07:55:48;6.00;99.90
6256;DHT22;3161;48.794;9.784;2023-12-20T07:58:15;6.00;99.90
6256;DHT22;3161;48.794;9.784;2023-12-20T08:00:43;6.10;99.90
6256;DHT22;3161;48.794;9.784;2023-12-20T08:03:10;6.10;99.90
6256;DHT22;3161;48.794;9.784;2023-12-20T08:05:38;6.10;99.90
6256;DHT22;3161;48.794;9.784;2023-12-20T08:08:07;6.20;99.90
6256;DHT22;3161;48.794;9.784;2023-12-20T08:10:36;6.20;99.90
6256;DHT22;3161;48.794;9.784;2023-12-20T08:13:03;6.20;99.90
6256;DHT22;3161;48.794;9.784;2023-12-20T08:15:31;6.20;99.90
6256;DHT22;3161;48.794;9.784;2023-12-20T08:17:58;6.20;99.90
6256;DHT22;3161;48.794;9.784;2023-12-20T08:20:26;6.20;99.90
6256;DHT22;3161;48.794;9.784;2023-12-20T08:22:53;6.20;99.90
6256;DHT22;3161;48.794;9.784;2023-12-20T08:25:21;6.20;99.90
6256;DHT22;3161;48.794;9.784;2023-12-20T08:27:48;6.20;99.90
6256;DHT22;3161;48.794;9.784;2023-12-20T08:30:16;6.10;99.90
6256;DHT22;3161;48.794;9.784;2023-12-20T08:32:50;6.20;99.90
6256;DHT22;3161;48.794;9.784;2023-12-20T08:35:18;6.20;99.90
6256;DHT22;3161;48.794;9.784;2023-12-20T08:37:46;6.20;99.90
6256;DHT22;3161;48.794;9.784;2023-12-20T08:40:14;6.20;99.90
6256;DHT22;3161;48.794;9.784;2023-12-20T08:42:41;6.10;99.90
6256;DHT22;3161;48.794;9.784;2023-12-20T08:45:09;6.10;99.90
6256;DHT22;3161;48.794;9.784;2023-12-20T08:47:37;6.10;99.90
6256;DHT22;3161;48.794;9.784;2023-12-20T08:50:05;6.10;99.90
6256;DHT22;3161;48.794;9.784;2023-12-20T08:52:33;6.20;99.90
6256;DHT22;3161;48.794;9.784;2023-12-20T08:55:00;6.20;99.90
6256;DHT22;3161;48.794;9.784;2023-12-20T08:57:28;6.20;99.90
6256;DHT22;3161;48.794;9.784;2023-12-20T08:59:55;6.20;99.90
6256;DHT22;3161;48.794;9.784;2023-12-20T09:02:23;6.20;99.90
6256;DHT22;3161;48.794;9.784;2023-12-20T09:04:50;6.20;99.90
6256;DHT22;3161;48.794;9.784;2023-12-20T09:07:25;6.20;99.90
6256;DHT22;3161;48.794;9.784;2023-12-20T09:09:53;6.20;99.90
6256;DHT22;3161;48.794;9.784;2023-12-20T09:12:21;6.20;99.90
6256;DHT22;3161;48.794;9.784;2023-12-20T09:14:50;6.20;99.90
6256;DHT22;3161;48.794;9.784;2023-12-20T09:17:18;6.20;99.90
6256;DHT22;3161;48.794;9.784;2023-12-20T09:19:48;6.20;99.90
6256;DHT22;3161;48.794;9.784;2023-12-20T09:22:16;6.20;99.90
6256;DHT22;3161;48.794;9.784;2023-12-20T09:24:44;6.30;99.90
6256;DHT22;3161;48.794;9.784;2023-12-20T09:27:12;6.20;99.90
6256;DHT22;3161;48.794;9.784;2023-12-20T09:29:40;6.30;99.90
6256;DHT22;3161;48.794;9.784;2023-12-20T09:32:07;6.30;99.90
6256;DHT22;3161;48.794;9.784;2023-12-20T09:34:35;6.30;99.90
6256;DHT22;3161;48.794;9.784;2023-12-20T09:37:04;6.30;99.90
6256;DHT22;3161;48.794;9.784;2023-12-20T09:39:32;6.30;99.90
6256;DHT22;3161;48.794;9.784;2023-12-20T09:42:02;6.40;99.90
6256;DHT22;3161;48.794;9.784;2023-12-20T09:44:31;6.50;99.90
6256;DHT22;3161;48.794;9.784;2023-12-20T09:47:04;6.50;99.90
6256;DHT22;3161;48.794;9.784;2023-12-20T09:49:33;6.60;99.90
6256;DHT22;3161;48.794;9.784;2023-12-20T09:52:01;6.60;99.90
6256;DHT22;3161;48.794;9.784;2023-12-20T09:54:29;6.70;99.90
6256;DHT22;3161;48.794;9.784;2023-12-20T09:56:57;6.80;99.90
6256;DHT22;3161;48.794;9.784;2023-12-20T09:59:24;6.80;99.90
6256;DHT22;3161;48.794;9.784;2023-12-20T10:01:54;6.80;99.90
6256;DHT22;3161;48.794;9.784;2023-12-20T10:04:24;6.80;99.90
6256;DHT22;3161;48.794;9.784;2023-12-20T10:06:52;6.80;99.90
6256;DHT22;3161;48.794;9.784;2023-12-20T10:09:19;6.80;99.90
6256;DHT22;3161;48.794;9.784;2023-12-20T10:11:47;6.80;99.90
6256;DHT22;3161;48.794;9.784;2023-12-20T10:14:16;6.90;99.90
6256;DHT22;3161;48.794;9.784;2023-12-20T10:16:45;6.80;99.90
6256;DHT22;3161;48.794;9.784;2023-12-20T10:19:12;6.90;99.90
6256;DHT22;3161;48.794;9.784;2023-12-20T10:21:42;6.90;99.90
6256;DHT22;3161;48.794;9.784;2023-12-20T10:24:09;6.90;99.90
6256;DHT22;3161;48.794;9.784;2023-12-20T10:26:38;6.90;99.90
6256;DHT22;3161;48.794;9.784;2023-12-20T10:29:06;7.00;99.90
6256;DHT22;3161;48.794;9.784;2023-12-20T10:31:39;7.00;99.90
6256;DHT22;3161;48.794;9.784;2023-12-20T10:34:07;7.10;99.90
6256;DHT22;3161;48.794;9.784;2023-12-20T10:36:34;7.10;99.90
6256;DHT22;3161;48.794;9.784;2023-12-20T10:39:04;7.10;99.90
6256;DHT22;3161;48.794;9.784;2023-12-20T10:41:33;7.10;99.90
6256;DHT22;3161;48.794;9.784;2023-12-20T10:44:04;7.10;99.90
6256;DHT22;3161;48.794;9.784;2023-12-20T10:46:32;7.10;99.90
6256;DHT22;3161;48.794;9.784;2023-12-20T10:49:05;7.10;99.90
6256;DHT22;3161;48.794;9.784;2023-12-20T10:51:35;7.10;99.90
6256;DHT22;3161;48.794;9.784;2023-12-20T10:54:04;7.20;99.90
6256;DHT22;3161;48.794;9.784;2023-12-20T10:56:33;7.20;99.90
6256;DHT22;3161;48.794;9.784;2023-12-20T10:59:03;7.30;99.90
6256;DHT22;3161;48.794;9.784;2023-12-20T11:01:32;7.30;99.90
6256;DHT22;3161;48.794;9.784;2023-12-20T11:04:00;7.30;99.90
6256;DHT22;3161;48.794;9.784;2023-12-20T11:06:49;7.30;99.90
6256;DHT22;3161;48.794;9.784;2023-12-20T11:09:25;7.30;99.90
6256;DHT22;3161;48.794;9.784;2023-12-20T11:17:14;7.30;99.90
6256;DHT22;3161;48.794;9.784;2023-12-20T11:22:29;7.30;99.90
6256;DHT22;3161;48.794;9.784;2023-12-20T11:25:05;7.40;99.90
6256;DHT22;3161;48.794;9.784;2023-12-20T11:27:35;7.40;99.90
6256;DHT22;3161;48.794;9.784;2023-12-20T11:30:06;7.30;99.90
6256;DHT22;3161;48.794;9.784;2023-12-20T11:33:03;7.20;99.90
6256;DHT22;3161;48.794;9.784;2023-12-20T11:35:31;7.10;99.90
6256;DHT22;3161;48.794;9.784;2023-12-20T11:37:58;7.10;99.90
6256;DHT22;3161;48.794;9.784;2023-12-20T11:40:26;7.10;99.90
6256;DHT22;3161;48.794;9.784;2023-12-20T11:42:53;7.10;99.90
6256;DHT22;3161;48.794;9.784;2023-12-20T11:45:23;7.20;99.90
6256;DHT22;3161;48.794;9.784;2023-12-20T11:47:52;7.20;99.90
6256;DHT22;3161;48.794;9.784;2023-12-20T11:50:24;7.20;99.90
6256;DHT22;3161;48.794;9.784;2023-12-20T11:52:53;7.20;99.90
6256;DHT22;3161;48.794;9.784;2023-12-20T11:55:22;7.20;99.90
6256;DHT22;3161;48.794;9.784;2023-12-20T11:57:53;7.10;99.90
6256;DHT22;3161;48.794;9.784;2023-12-20T12:00:20;7.20;99.90
6256;DHT22;3161;48.794;9.784;2023-12-20T12:02:58;7.20;99.90
6256;DHT22;3161;48.794;9.784;2023-12-20T12:05:26;7.10;99.90
6256;DHT22;3161;48.794;9.784;2023-12-20T12:07:53;7.10;99.90
6256;DHT22;3161;48.794;9.784;2023-12-20T12:10:23;7.00;99.90
6256;DHT22;3161;48.794;9.784;2023-12-20T12:12:50;7.00;99.90
6256;DHT22;3161;48.794;9.784;2023-12-20T12:15:18;7.00;99.90
6256;DHT22;3161;48.794;9.784;2023-12-20T12:17:56;6.90;99.90
6256;DHT22;3161;48.794;9.784;2023-12-20T12:20:24;6.80;99.90
6256;DHT22;3161;48.794;9.784;2023-12-20T12:23:01;6.80;99.90
6256;DHT22;3161;48.794;9.784;2023-12-20T12:25:31;6.80;99.90
6256;DHT22;3161;48.794;9.784;2023-12-20T12:27:59;6.80;99.90
6256;DHT22;3161;48.794;9.784;2023-12-20T12:30:28;6.80;99.90
6256;DHT22;3161;48.794;9.784;2023-12-20T12:32:57;6.70;99.90
6256;DHT22;3161;48.794;9.784;2023-12-20T12:35:27;6.70;99.90
6256;DHT22;3161;48.794;9.784;2023-12-20T12:37:59;6.60;99.90
6256;DHT22;3161;48.794;9.784;2023-12-20T12:40:28;6.60;99.90
6256;DHT22;3161;48.794;9.784;2023-12-20T12:42:56;6.60;99.90
6256;DHT22;3161;48.794;9.784;2023-12-20T12:45:23;6.60;99.90
6256;DHT22;3161;48.794;9.784;2023-12-20T12:47:52;6.50;99.90
6256;DHT22;3161;48.794;9.784;2023-12-20T12:50:21;6.50;99.90
6256;DHT22;3161;48.794;9.784;2023-12-20T12:52:51;6.50;99.90
6256;DHT22;3161;48.794;9.784;2023-12-20T12:55:19;6.50;99.90
6256;DHT22;3161;48.794;9.784;2023-12-20T12:57:46;6.50;99.90
6256;DHT22;3161;48.794;9.784;2023-12-20T13:00:15;6.60;99.90
6256;DHT22;3161;48.794;9.784;2023-12-20T13:02:42;6.60;99.90
6256;DHT22;3161;48.794;9.784;2023-12-20T13:05:10;6.60;99.90
6256;DHT22;3161;48.794;9.784;2023-12-20T13:07:37;6.60;99.90
6256;DHT22;3161;48.794;9.784;2023-12-20T13:10:06;6.60;99.90
6256;DHT22;3161;48.794;9.784;2023-12-20T13:12:34;6.60;99.90
6256;DHT22;3161;48.794;9.784;2023-12-20T13:15:01;6.60;99.90
6256;DHT22;3161;48.794;9.784;2023-12-20T13:17:30;6.60;99.90
6256;DHT22;3161;48.794;9.784;2023-12-20T13:19:58;6.60;99.90
6256;DHT22;3161;48.794;9.784;2023-12-20T13:22:26;6.60;99.90
6256;DHT22;3161;48.794;9.784;2023-12-20T13:24:55;6.60;99.90
6256;DHT22;3161;48.794;9.784;2023-12-20T13:27:23;6.60;99.90
6256;DHT22;3161;48.794;9.784;2023-12-20T13:29:51;6.50;99.90
6256;DHT22;3161;48.794;9.784;2023-12-20T13:32:18;6.50;99.90
6256;DHT22;3161;48.794;9.784;2023-12-20T13:34:46;6.50;99.90
6256;DHT22;3161;48.794;9.784;2023-12-20T13:37:14;6.50;99.90
6256;DHT22;3161;48.794;9.784;2023-12-20T13:39:41;6.50;99.90
6256;DHT22;3161;48.794;9.784;2023-12-20T13:42:09;6.50;99.90
6256;DHT22;3161;48.794;9.784;2023-12-20T13:44:36;6.40;99.90
6256;DHT22;3161;48.794;9.784;2023-12-20T13:47:06;6.40;99.90
6256;DHT22;3161;48.794;9.784;2023-12-20T13:49:33;6.40;99.90
6256;DHT22;3161;48.794;9.784;2023-12-20T13:52:01;6.40;99.90
6256;DHT22;3161;48.794;9.784;2023-12-20T13:54:30;6.40;99.90
6256;DHT22;3161;48.794;9.784;2023-12-20T13:56:58;6.40;99.90
6256;DHT22;3161;48.794;9.784;2023-12-20T13:59:25;6.30;99.90
6256;DHT22;3161;48.794;9.784;2023-12-20T14:01:53;6.30;99.90
6256;DHT22;3161;48.794;9.784;2023-12-20T14:04:20;6.30;99.90
6256;DHT22;3161;48.794;9.784;2023-12-20T14:06:48;6.30;99.90
6256;DHT22;3161;48.794;9.784;2023-12-20T14:09:16;6.30;99.90
6256;DHT22;3161;48.794;9.784;2023-12-20T14:12:02;6.30;99.90
6256;DHT22;3161;48.794;9.784;2023-12-20T14:14:30;6.30;99.90
6256;DHT22;3161;48.794;9.784;2023-12-20T14:16:57;6.30;99.90
6256;DHT22;3161;48.794;9.784;2023-12-20T14:19:25;6.20;99.90
6256;DHT22;3161;48.794;9.784;2023-12-20T14:21:53;6.20;99.90
6256;DHT22;3161;48.794;9.784;2023-12-20T14:24:21;6.20;99.90
6256;DHT22;3161;48.794;9.784;2023-12-20T14:26:48;6.20;99.90
6256;DHT22;3161;48.794;9.784;2023-12-20T14:29:16;6.20;99.90
6256;DHT22;3161;48.794;9.784;2023-12-20T14:31:44;6.20;99.90
6256;DHT22;3161;48.794;9.784;2023-12-20T14:34:12;6.20;99.90
6256;DHT22;3161;48.794;9.784;2023-12-20T14:36:40;6.20;99.90
6256;DHT22;3161;48.794;9.784;2023-12-20T14:39:08;6.20;99.90
6256;DHT22;3161;48.794;9.784;2023-12-20T14:41:37;6.20;99.90
6256;DHT22;3161;48.794;9.784;2023-12-20T14:44:06;6.20;99.90
6256;DHT22;3161;48.794;9.784;2023-12-20T14:46:34;6.20;99.90
6256;DHT22;3161;48.794;9.784;2023-12-20T14:49:01;6.20;99.90
6256;DHT22;3161;48.794;9.784;2023-12-20T14:51:29;6.20;99.90
6256;DHT22;3161;48.794;9.784;2023-12-20T14:53:57;6.20;99.90
6256;DHT22;3161;48.794;9.784;2023-12-20T14:56:24;6.20;99.90
6256;DHT22;3161;48.794;9.784;2023-12-20T14:58:53;6.20;99.90
6256;DHT22;3161;48.794;9.784;2023-12-20T15:01:20;6.20;99.90
6256;DHT22;3161;48.794;9.784;2023-12-20T15:03:48;6.10;99.90
6256;DHT22;3161;48.794;9.784;2023-12-20T15:06:16;6.10;99.90
6256;DHT22;3161;48.794;9.784;2023-12-20T15:08:45;6.10;99.90
6256;DHT22;3161;48.794;9.784;2023-12-20T15:11:12;6.10;99.90
6256;DHT22;3161;48.794;9.784;2023-12-20T15:13:40;6.10;99.90
6256;DHT22;3161;48.794;9.784;2023-12-20T15:16:08;6.10;99.90
6256;DHT22;3161;48.794;9.784;2023-12-20T15:18:36;6.10;99.90
6256;DHT22;3161;48.794;9.784;2023-12-20T15:21:04;6.10;99.90
6256;DHT22;3161;48.794;9.784;2023-12-20T15:23:32;6.10;99.90
6256;DHT22;3161;48.794;9.784;2023-12-20T15:26:00;6.10;99.90
6256;DHT22;3161;48.794;9.784;2023-12-20T15:28:29;6.00;99.90
6256;DHT22;3161;48.794;9.784;2023-12-20T15:30:57;6.10;99.90
6256;DHT22;3161;48.794;9.784;2023-12-20T15:33:24;6.00;99.90
6256;DHT22;3161;48.794;9.784;2023-12-20T15:35:51;6.00;99.90
6256;DHT22;3161;48.794;9.784;2023-12-20T15:38:19;6.00;99.90
6256;DHT22;3161;48.794;9.784;2023-12-20T15:40:47;6.00;99.90
6256;DHT22;3161;48.794;9.784;2023-12-20T15:43:15;5.90;99.90
6256;DHT22;3161;48.794;9.784;2023-12-20T15:45:42;6.00;99.90
6256;DHT22;3161;48.794;9.784;2023-12-20T15:48:11;6.00;99.90
6256;DHT22;3161;48.794;9.784;2023-12-20T15:50:41;5.90;99.90
6256;DHT22;3161;48.794;9.784;2023-12-20T15:53:08;5.90;99.90
6256;DHT22;3161;48.794;9.784;2023-12-20T15:55:36;5.80;99.90
6256;DHT22;3161;48.794;9.784;2023-12-20T15:58:03;5.70;99.90
6256;DHT22;3161;48.794;9.784;2023-12-20T16:00:31;5.70;99.90
6256;DHT22;3161;48.794;9.784;2023-12-20T16:02:58;5.70;99.90
6256;DHT22;3161;48.794;9.784;2023-12-20T16:05:26;5.70;99.90
6256;DHT22;3161;48.794;9.784;2023-12-20T16:07:53;5.70;99.90
6256;DHT22;3161;48.794;9.784;2023-12-20T16:10:21;5.60;99.90
6256;DHT22;3161;48.794;9.784;2023-12-20T16:12:48;5.60;99.90
6256;DHT22;3161;48.794;9.784;2023-12-20T16:15:16;5.60;99.90
6256;DHT22;3161;48.794;9.784;2023-12-20T16:17:44;5.60;99.90
6256;DHT22;3161;48.794;9.784;2023-12-20T16:20:11;5.60;99.90
6256;DHT22;3161;48.794;9.784;2023-12-20T16:22:40;5.60;99.90
6256;DHT22;3161;48.794;9.784;2023-12-20T16:25:08;5.60;99.90
6256;DHT22;3161;48.794;9.784;2023-12-20T16:30:27;5.60;99.90
6256;DHT22;3161;48.794;9.784;2023-12-20T16:32:55;5.50;99.90
6256;DHT22;3161;48.794;9.784;2023-12-20T16:35:23;5.60;99.90
6256;DHT22;3161;48.794;9.784;2023-12-20T16:37:50;5.60;99.90